createdAt,value
2019-04-11T00:00:31.341Z,9.70
2019-04-11T00:03:00.840Z,9.60
2019-04-11T00:05:30.711Z,9.62
2019-04-11T00:08:00.205Z,9.69
2019-04-11T00:10:29.904Z,9.55
2019-04-11T00:13:01.117Z,9.09
2019-04-11T00:15:30.715Z,9.43
2019-04-11T00:18:00.685Z,9.44
2019-04-11T00:20:29.746Z,9.43
2019-04-11T00:22:59.700Z,9.35
2019-04-11T00:25:28.760Z,9.61
2019-04-11T00:27:57.651Z,9.39
2019-04-11T00:30:26.548Z,9.42
2019-04-11T00:32:56.044Z,9.37
2019-04-11T00:35:25.915Z,9.03
2019-04-11T00:37:54.852Z,9.22
2019-04-11T00:40:24.802Z,9.38
2019-04-11T00:42:54.730Z,9.52
2019-04-11T00:45:23.782Z,9.32
2019-04-11T00:47:53.227Z,9.36
2019-04-11T00:50:23.197Z,9.21
2019-04-11T00:52:53.831Z,9.42
2019-04-11T00:55:23.760Z,9.49
2019-04-11T00:57:53.074Z,9.55
2019-04-11T01:00:22.865Z,9.37
2019-04-11T01:02:51.859Z,9.65
2019-04-11T01:05:21.394Z,9.55
2019-04-11T01:07:51.274Z,9.69
2019-04-11T01:10:20.437Z,9.73
2019-04-11T01:12:49.904Z,9.59
2019-04-11T01:15:21.631Z,9.20
2019-04-11T01:17:51.680Z,8.97
2019-04-11T01:20:21.578Z,8.93
2019-04-11T01:22:50.824Z,8.89
2019-04-11T01:25:20.148Z,8.93
2019-04-11T01:27:50.019Z,8.78
2019-04-11T01:30:22.848Z,8.91
2019-04-11T01:32:52.717Z,8.69
2019-04-11T01:35:21.775Z,8.60
2019-04-11T01:37:50.771Z,8.81
2019-04-11T01:40:19.661Z,8.78
2019-04-11T01:42:49.249Z,8.79
2019-04-11T01:45:21.163Z,8.80
2019-04-11T01:48:07.504Z,8.79
2019-04-11T01:50:38.059Z,8.88
2019-04-11T01:53:08.850Z,8.84
2019-04-11T01:55:38.769Z,9.05
2019-04-11T01:58:08.694Z,9.22
2019-04-11T02:00:42.117Z,9.26
2019-04-11T02:03:15.562Z,9.23
2019-04-11T02:05:45.341Z,9.28
2019-04-11T02:08:15.321Z,9.29
2019-04-11T02:10:45.288Z,9.29
2019-04-11T02:13:15.208Z,9.46
2019-04-11T02:15:44.384Z,9.46
2019-04-11T02:18:13.271Z,9.59
2019-04-11T02:20:42.165Z,9.36
2019-04-11T02:23:26.775Z,9.29
2019-04-11T02:26:00.846Z,9.40
2019-04-11T02:28:30.922Z,9.31
2019-04-11T02:31:00.225Z,9.20
2019-04-11T02:33:30.527Z,9.30
2019-04-11T02:36:00.886Z,9.30
2019-04-11T02:38:30.513Z,9.26
2019-04-11T02:41:01.181Z,9.33
2019-04-11T02:43:31.813Z,9.25
2019-04-11T02:46:13.053Z,9.36
2019-04-11T02:48:33.042Z,9.26
2019-04-11T02:51:02.985Z,9.22
2019-04-11T02:53:34.362Z,9.40
2019-04-11T02:56:05.983Z,9.33
2019-04-11T02:58:36.689Z,9.37
2019-04-11T03:01:07.482Z,9.30
2019-04-11T03:03:37.377Z,9.30
2019-04-11T03:06:07.233Z,9.37
2019-04-11T03:08:38.790Z,9.48
2019-04-11T03:11:10.624Z,9.49
2019-04-11T03:13:40.084Z,9.53
2019-04-11T03:16:24.988Z,9.37
2019-04-11T03:18:59.285Z,9.33
2019-04-11T03:21:17.969Z,9.31
2019-04-11T03:23:44.029Z,9.29
2019-04-11T03:26:14.081Z,9.30
2019-04-11T03:28:47.479Z,9.34
2019-04-11T03:31:50.599Z,9.38
2019-04-11T03:39:11.802Z,9.37
2019-04-11T03:41:36.027Z,9.27
2019-04-11T03:43:59.321Z,9.27
2019-04-11T03:46:38.094Z,9.47
2019-04-11T03:49:01.223Z,9.47
2019-04-11T03:51:22.758Z,9.23
2019-04-11T03:53:53.428Z,9.24
2019-04-11T03:56:24.227Z,9.29
2019-04-11T03:58:55.333Z,9.53
2019-04-11T04:01:26.309Z,9.23
2019-04-11T04:03:55.786Z,9.07
2019-04-11T04:06:25.590Z,9.53
2019-04-11T04:08:55.495Z,9.46
2019-04-11T04:11:27.446Z,9.54
2019-04-11T04:13:59.897Z,9.56
2019-04-11T04:16:50.495Z,9.47
2019-04-11T04:19:35.538Z,9.49
2019-04-11T04:22:15.964Z,8.92
2019-04-11T04:24:47.710Z,9.05
2019-04-11T04:27:17.471Z,8.99
2019-04-11T04:29:49.643Z,8.88
2019-04-11T04:32:18.534Z,8.97
2019-04-11T04:34:50.591Z,8.97
2019-04-11T04:37:21.429Z,9.05
2019-04-11T04:40:12.256Z,8.89
2019-04-11T04:42:27.235Z,9.29
2019-04-11T04:44:51.679Z,9.29
2019-04-11T04:47:24.874Z,9.07
2019-04-11T04:49:52.228Z,9.40
2019-04-11T04:52:21.463Z,9.19
2019-04-11T04:54:50.414Z,9.24
2019-04-11T04:57:21.855Z,9.30
2019-04-11T04:59:50.757Z,9.19
2019-04-11T05:02:20.577Z,9.18
2019-04-11T05:04:49.779Z,9.15
2019-04-11T05:07:19.390Z,9.22
2019-04-11T05:09:50.175Z,9.26
2019-04-11T05:12:20.522Z,9.36
2019-04-11T05:14:49.982Z,9.07
2019-04-11T05:17:19.356Z,9.08
2019-04-11T05:19:48.759Z,9.06
2019-04-11T05:22:18.934Z,9.21
2019-04-11T05:24:48.064Z,9.19
2019-04-11T05:27:17.546Z,9.02
2019-04-11T05:29:46.356Z,9.12
2019-04-11T05:32:15.460Z,9.23
2019-04-11T05:34:45.617Z,9.32
2019-04-11T05:37:15.309Z,9.22
2019-04-11T05:39:44.968Z,9.26
2019-04-11T05:42:17.763Z,9.33
2019-04-11T05:44:45.152Z,9.34
2019-04-11T05:47:18.144Z,9.30
2019-04-11T05:49:46.665Z,9.36
2019-04-11T05:52:15.780Z,9.50
2019-04-11T05:54:47.997Z,9.64
2019-04-11T05:57:22.073Z,9.56
2019-04-11T05:59:49.943Z,9.54
2019-04-11T06:02:24.824Z,9.46
2019-04-11T06:05:02.729Z,9.57
2019-04-11T06:07:40.030Z,9.48
2019-04-11T06:10:12.624Z,9.57
2019-04-11T06:12:58.999Z,9.77
2019-04-11T06:15:33.273Z,9.78
2019-04-11T06:18:04.862Z,9.70
2019-04-11T06:20:45.218Z,9.85
2019-04-11T06:23:25.456Z,9.74
2019-04-11T06:26:06.690Z,9.91
2019-04-11T06:28:36.160Z,9.77
2019-04-11T06:31:18.726Z,9.68
2019-04-11T06:33:49.172Z,9.71
2019-04-11T06:36:23.261Z,9.97
2019-04-11T06:38:54.692Z,10.09
2019-04-11T06:41:26.270Z,10.16
2019-04-11T06:43:56.812Z,10.07
2019-04-11T06:46:31.317Z,10.28
2019-04-11T06:49:16.612Z,10.47
2019-04-11T06:51:50.478Z,10.43
2019-04-11T06:54:23.613Z,10.43
2019-04-11T06:56:53.842Z,10.37
2019-04-11T06:59:28.095Z,10.39
2019-04-11T07:02:08.013Z,10.42
2019-04-11T07:04:33.925Z,10.36
2019-04-11T07:07:04.509Z,10.41
2019-04-11T07:09:41.426Z,10.59
2019-04-11T07:12:13.388Z,10.42
2019-04-11T07:14:53.042Z,10.43
2019-04-11T07:17:40.444Z,10.42
2019-04-11T07:20:16.547Z,10.41
2019-04-11T07:23:03.745Z,9.93
2019-04-11T07:25:43.693Z,10.41
2019-04-11T07:28:14.476Z,10.47
2019-04-11T07:31:02.392Z,10.22
2019-04-11T07:33:33.316Z,10.61
2019-04-11T07:36:21.020Z,10.46
2019-04-11T07:39:07.824Z,10.41
2019-04-11T07:41:39.247Z,10.31
2019-04-11T07:44:11.005Z,10.58
2019-04-11T07:46:58.248Z,10.72
2019-04-11T07:49:44.987Z,10.76
2019-04-11T07:52:15.771Z,10.93
2019-04-11T07:54:45.634Z,11.21
2019-04-11T07:57:26.344Z,11.18
2019-04-11T08:00:12.720Z,11.07
2019-04-11T08:03:01.975Z,11.30
2019-04-11T08:05:32.608Z,11.17
2019-04-11T08:08:06.847Z,11.08
2019-04-11T08:10:44.232Z,11.03
2019-04-11T08:13:23.861Z,11.24
2019-04-11T08:16:10.607Z,11.19
2019-04-11T08:18:57.787Z,11.24
2019-04-11T08:21:44.291Z,11.02
2019-04-11T08:24:30.132Z,10.82
2019-04-11T08:27:00.921Z,11.03
2019-04-11T08:29:30.555Z,10.74
2019-04-11T08:32:09.926Z,10.95
2019-04-11T08:34:43.719Z,10.91
2019-04-11T08:37:23.315Z,10.87
2019-04-11T08:39:53.395Z,10.48
2019-04-11T08:42:40.797Z,10.75
2019-04-11T08:45:12.665Z,10.12
2019-04-11T08:47:47.703Z,10.45
2019-04-11T08:50:16.396Z,10.41
2019-04-11T08:52:50.043Z,10.33
2019-04-11T08:55:21.044Z,10.36
2019-04-11T08:57:51.924Z,10.49
2019-04-11T09:00:33.064Z,10.20
2019-04-11T09:03:09.670Z,10.42
2019-04-11T09:05:40.863Z,10.57
2019-04-11T09:08:12.575Z,10.62
2019-04-11T09:11:00.121Z,10.67
2019-04-11T09:13:31.318Z,10.80
2019-04-11T09:16:18.329Z,10.57
2019-04-11T09:18:47.870Z,10.56
2019-04-11T09:21:34.575Z,10.60
2019-04-11T09:24:06.124Z,10.50
2019-04-11T09:26:52.941Z,10.85
2019-04-11T09:29:24.087Z,10.85
2019-04-11T09:32:09.804Z,10.42
2019-04-11T09:34:44.078Z,10.86
2019-04-11T09:37:16.824Z,10.91
2019-04-11T09:39:51.033Z,11.07
2019-04-11T09:42:23.001Z,10.94
2019-04-11T09:44:57.222Z,10.98
2019-04-11T09:47:46.131Z,11.09
2019-04-11T09:50:16.658Z,10.91
2019-04-11T09:52:47.423Z,10.74
2019-04-11T09:55:23.760Z,10.61
2019-04-11T09:57:54.644Z,10.92
2019-04-11T10:00:32.497Z,11.14
2019-04-11T10:03:02.975Z,11.05
2019-04-11T10:05:36.422Z,11.16
2019-04-11T10:08:10.666Z,11.21
2019-04-11T10:10:57.545Z,10.88
2019-04-11T10:13:31.108Z,11.11
2019-04-11T10:16:11.548Z,11.17
2019-04-11T10:18:51.567Z,11.10
2019-04-11T10:21:23.024Z,10.98
2019-04-11T10:24:01.032Z,10.84
2019-04-11T10:26:31.979Z,11.21
2019-04-11T10:29:14.913Z,11.14
2019-04-11T10:31:48.528Z,11.11
2019-04-11T10:34:21.778Z,11.29
2019-04-11T10:36:52.203Z,11.28
2019-04-11T10:39:22.771Z,10.75
2019-04-11T10:41:53.817Z,10.85
2019-04-11T10:44:27.018Z,10.89
2019-04-11T10:47:10.041Z,11.36
2019-04-11T10:49:50.656Z,11.15
2019-04-11T10:52:27.025Z,11.34
2019-04-11T10:55:15.671Z,11.26
2019-04-11T10:57:48.764Z,11.52
2019-04-11T11:00:23.003Z,11.37
2019-04-11T11:03:11.898Z,11.60
2019-04-11T11:05:45.353Z,11.59
2019-04-11T11:08:19.475Z,12.27
2019-04-11T11:10:52.130Z,12.21
2019-04-11T11:13:25.655Z,12.10
2019-04-11T11:15:56.037Z,12.26
2019-04-11T11:19:06.002Z,11.95
2019-04-11T11:21:11.314Z,11.92
2019-04-11T11:23:42.833Z,12.15
2019-04-11T11:26:14.509Z,11.77
2019-04-11T11:28:45.094Z,11.88
2019-04-11T11:31:22.383Z,11.85
2019-04-11T11:33:51.786Z,11.76
2019-04-11T11:36:23.426Z,12.17
2019-04-11T11:39:13.057Z,11.85
2019-04-11T11:41:44.586Z,11.70
2019-04-11T11:44:13.871Z,12.03
2019-04-11T11:46:44.673Z,12.45
2019-04-11T11:49:14.273Z,12.56
2019-04-11T11:52:03.996Z,12.79
2019-04-11T11:54:37.795Z,13.22
2019-04-11T11:57:08.682Z,12.94
2019-04-11T11:59:45.181Z,13.11
2019-04-11T12:02:21.113Z,12.99
2019-04-11T12:04:56.203Z,13.12
2019-04-11T12:07:42.994Z,13.13
2019-04-11T12:10:23.965Z,13.18
2019-04-11T12:13:08.136Z,13.04
2019-04-11T12:15:45.503Z,13.59
2019-04-11T12:18:20.371Z,13.96
2019-04-11T12:20:59.218Z,13.75
2019-04-11T12:23:44.775Z,12.90
2019-04-11T12:26:05.377Z,13.12
2019-04-11T12:28:54.291Z,13.60
2019-04-11T12:31:28.701Z,14.30
2019-04-11T12:34:02.293Z,14.49
2019-04-11T12:36:46.580Z,14.30
2019-04-11T12:39:28.679Z,13.63
2019-04-11T12:41:58.408Z,14.03
2019-04-11T12:44:31.805Z,13.22
2019-04-11T12:47:07.594Z,13.39
2019-04-11T12:49:52.471Z,13.19
2019-04-11T12:52:31.656Z,13.69
2019-04-11T12:55:02.096Z,13.58
2019-04-11T12:57:48.894Z,14.06
2019-04-11T13:00:19.749Z,14.31
2019-04-11T13:03:02.555Z,14.47
2019-04-11T13:05:45.475Z,14.40
2019-04-11T13:08:19.075Z,13.54
2019-04-11T13:10:48.276Z,13.53
2019-04-11T13:13:37.237Z,12.94
2019-04-11T13:16:12.485Z,13.36
2019-04-11T13:18:58.873Z,13.56
2019-04-11T13:21:32.001Z,13.89
2019-04-11T13:24:02.416Z,13.58
2019-04-11T13:26:49.510Z,13.89
2019-04-11T13:29:29.051Z,14.16
2019-04-11T13:32:17.499Z,14.10
2019-04-11T13:34:47.933Z,14.73
2019-04-11T13:37:18.352Z,14.34
2019-04-11T13:39:48.782Z,13.97
2019-04-11T13:42:35.601Z,14.62
2019-04-11T13:45:06.224Z,14.12
2019-04-11T13:47:52.857Z,14.51
2019-04-11T13:50:23.259Z,14.16
2019-04-11T13:53:09.829Z,14.40
2019-04-11T13:55:38.755Z,14.23
2019-04-11T13:58:15.441Z,14.32
2019-04-11T14:00:45.960Z,14.65
2019-04-11T14:03:34.612Z,13.95
2019-04-11T14:06:05.043Z,14.35
2019-04-11T14:08:47.450Z,14.46
2019-04-11T14:11:17.879Z,14.67
2019-04-11T14:13:46.778Z,15.01
2019-04-11T14:16:19.960Z,14.29
2019-04-11T14:18:56.326Z,14.33
2019-04-11T14:21:32.691Z,14.49
2019-04-11T14:24:12.200Z,14.16
2019-04-11T14:26:48.499Z,14.08
2019-04-11T14:29:34.284Z,13.79
2019-04-11T14:32:04.714Z,13.60
2019-04-11T14:34:40.853Z,14.09
2019-04-11T14:37:37.811Z,13.68
2019-04-11T14:40:11.410Z,13.61
2019-04-11T14:42:50.861Z,13.59
2019-04-11T14:45:24.467Z,13.53
2019-04-11T14:47:54.893Z,13.31
2019-04-11T14:50:25.113Z,13.33
2019-04-11T14:52:58.409Z,13.38
2019-04-11T14:55:28.528Z,13.30
2019-04-11T14:57:58.954Z,13.37
2019-04-11T15:00:29.586Z,13.60
2019-04-11T15:03:18.243Z,13.12
2019-04-11T15:05:48.679Z,13.10
2019-04-11T15:08:28.210Z,13.15
2019-04-11T15:10:58.637Z,13.09
2019-04-11T15:13:29.066Z,12.93
2019-04-11T15:16:14.503Z,12.76
2019-04-11T15:18:44.973Z,13.06
2019-04-11T15:21:18.367Z,13.30
2019-04-11T15:23:47.337Z,13.15
2019-04-11T15:26:26.906Z,13.36
2019-04-11T15:28:57.329Z,13.26
2019-04-11T15:31:39.932Z,12.87
2019-04-11T15:34:19.598Z,12.71
2019-04-11T15:36:50.114Z,12.74
2019-04-11T15:39:44.366Z,12.64
2019-04-11T15:42:10.172Z,12.53
2019-04-11T15:44:46.471Z,12.57
2019-04-11T15:47:19.008Z,12.71
2019-04-11T15:50:04.951Z,12.29
2019-04-11T15:52:34.701Z,12.29
2019-04-11T15:55:23.419Z,12.19
2019-04-11T15:57:52.618Z,12.07
2019-04-11T16:00:23.153Z,12.35
2019-04-11T16:02:56.548Z,12.31
2019-04-11T16:05:45.516Z,12.47
2019-04-11T16:08:31.089Z,12.51
2019-04-11T16:11:04.229Z,12.31
2019-04-11T16:13:43.619Z,12.14
2019-04-11T16:16:12.810Z,12.10
2019-04-11T16:22:05.384Z,12.16
2019-04-11T16:24:38.987Z,12.06
2019-04-11T16:27:16.168Z,11.91
2019-04-11T16:29:59.092Z,11.97
2019-04-11T16:32:29.521Z,12.01
2019-04-11T16:35:09.142Z,11.80
2019-04-11T16:37:38.665Z,11.61
2019-04-11T16:40:14.816Z,11.56
2019-04-11T16:42:44.620Z,11.74
2019-04-11T16:45:31.862Z,11.84
2019-04-11T16:48:02.622Z,11.51
2019-04-11T16:50:31.694Z,11.56
2019-04-11T16:53:00.700Z,11.61
2019-04-11T16:55:29.588Z,11.54
2019-04-11T16:57:58.470Z,11.46
2019-04-11T17:00:27.468Z,11.23
2019-04-11T17:02:56.458Z,11.35
2019-04-11T17:05:26.797Z,11.43
2019-04-11T17:08:06.219Z,11.30
2019-04-11T17:10:56.571Z,11.14
2019-04-11T17:13:25.800Z,11.10
2019-04-11T17:15:54.399Z,11.28
2019-04-11T17:18:23.289Z,11.11
2019-04-11T17:20:52.284Z,11.29
2019-04-11T17:23:21.173Z,11.05
2019-04-11T17:25:52.910Z,10.93
2019-04-11T17:28:23.087Z,11.20
2019-04-11T17:30:54.784Z,10.92
2019-04-11T17:33:25.527Z,10.92
2019-04-11T17:35:53.821Z,11.09
2019-04-11T17:38:22.715Z,10.94
2019-04-11T17:40:51.706Z,10.92
2019-04-11T17:43:20.599Z,11.06
2019-04-11T17:45:49.489Z,10.78
2019-04-11T17:48:19.760Z,10.62
2019-04-11T17:50:48.604Z,10.91
2019-04-11T17:53:17.491Z,10.61
2019-04-11T17:55:46.390Z,10.82
2019-04-11T17:58:15.273Z,10.72
2019-04-11T18:00:45.702Z,10.70
2019-04-11T18:03:14.595Z,11.00
2019-04-11T18:05:46.615Z,10.77
2019-04-11T18:08:14.320Z,10.74
2019-04-11T18:10:43.214Z,10.72
2019-04-11T18:13:12.411Z,10.59
2019-04-11T18:15:41.403Z,10.71
2019-04-11T18:18:10.602Z,10.79
2019-04-11T18:20:39.596Z,10.13
2019-04-11T18:23:09.102Z,10.57
2019-04-11T18:25:38.094Z,10.39
2019-04-11T18:28:07.557Z,10.59
2019-04-11T18:30:36.491Z,10.56
2019-04-11T18:33:05.503Z,10.72
2019-04-11T18:35:34.583Z,10.47
2019-04-11T18:38:03.472Z,10.47
2019-04-11T18:40:32.465Z,10.26
2019-04-11T18:43:01.473Z,10.33
2019-04-11T18:45:30.350Z,10.38
2019-04-11T18:47:59.360Z,10.29
2019-04-11T18:50:28.922Z,10.28
2019-04-11T18:52:59.516Z,10.25
2019-04-11T18:55:28.577Z,10.28
2019-04-11T18:57:57.474Z,10.14
2019-04-11T19:00:26.802Z,10.12
2019-04-11T19:02:55.999Z,10.01
2019-04-11T19:05:29.060Z,10.01
2019-04-11T19:07:55.640Z,9.87
2019-04-11T19:10:24.488Z,10.09
2019-04-11T19:12:55.345Z,9.92
2019-04-11T19:15:25.444Z,10.01
2019-04-11T19:18:05.784Z,9.95
2019-04-11T19:20:24.964Z,10.03
2019-04-11T19:22:53.855Z,9.91
2019-04-11T19:25:22.851Z,9.85
2019-04-11T19:27:54.197Z,9.91
2019-04-11T19:30:23.951Z,9.86
2019-04-11T19:32:53.169Z,9.66
2019-04-11T19:35:22.107Z,9.75
2019-04-11T19:37:50.998Z,9.42
2019-04-11T19:40:19.883Z,9.64
2019-04-11T19:42:49.764Z,9.62
2019-04-11T19:45:20.298Z,9.61
2019-04-11T19:47:51.839Z,9.71
2019-04-11T19:50:19.969Z,9.73
2019-04-11T19:52:48.848Z,9.66
2019-04-11T19:55:19.373Z,9.59
2019-04-11T19:57:48.272Z,9.62
2019-04-11T20:00:21.585Z,9.59
2019-04-11T20:02:51.784Z,9.61
2019-04-11T20:05:21.604Z,9.55
2019-04-11T20:07:50.490Z,9.70
2019-04-11T20:10:19.378Z,9.70
2019-04-11T20:12:48.270Z,9.79
2019-04-11T20:15:17.162Z,9.45
2019-04-11T20:17:51.135Z,9.63
2019-04-11T20:20:16.785Z,9.74
2019-04-11T20:22:57.951Z,9.72
2019-04-11T20:25:16.843Z,9.61
2019-04-11T20:27:48.128Z,9.58
2019-04-11T20:30:16.736Z,9.78
2019-04-11T20:32:45.646Z,9.30
2019-04-11T20:35:14.593Z,9.53
2019-04-11T20:37:44.687Z,9.47
2019-04-11T20:40:17.442Z,9.24
2019-04-11T20:42:44.795Z,9.39
2019-04-11T20:45:13.891Z,9.29
2019-04-11T20:47:42.786Z,9.10
2019-04-11T20:50:11.978Z,9.32
2019-04-11T20:52:40.872Z,9.29
2019-04-11T20:55:11.094Z,9.37
2019-04-11T20:57:41.023Z,9.24
2019-04-11T21:00:12.447Z,9.20
2019-04-11T21:02:41.351Z,9.44
2019-04-11T21:05:11.471Z,9.54
2019-04-11T21:07:40.361Z,9.30
2019-04-11T21:10:10.347Z,9.47
2019-04-11T21:12:39.282Z,9.56
2019-04-11T21:15:09.800Z,9.35
2019-04-11T21:17:38.691Z,9.52
2019-04-11T21:20:09.161Z,9.37
2019-04-11T21:22:38.012Z,9.33
2019-04-11T21:25:07.550Z,9.14
2019-04-11T21:27:36.407Z,9.27
2019-04-11T21:30:06.820Z,9.12
2019-04-11T21:32:35.626Z,9.22
2019-04-11T21:35:06.537Z,9.32
2019-04-11T21:37:36.737Z,9.35
2019-04-11T21:40:07.543Z,9.23
2019-04-11T21:42:36.807Z,9.16
2019-04-11T21:45:07.449Z,9.28
2019-04-11T21:47:37.196Z,9.41
2019-04-11T21:50:09.428Z,8.96
2019-04-11T21:52:43.444Z,9.15
2019-04-11T21:55:15.192Z,9.04
2019-04-11T21:57:41.635Z,9.21
2019-04-11T22:00:23.183Z,9.38
2019-04-11T22:02:54.503Z,9.02
2019-04-11T22:05:23.056Z,8.86
2019-04-11T22:07:51.945Z,9.13
2019-04-11T22:10:20.842Z,8.93
2019-04-11T22:12:49.830Z,8.77
2019-04-11T22:15:18.720Z,9.08
2019-04-11T22:17:47.614Z,8.98
2019-04-11T22:20:17.375Z,8.98
2019-04-11T22:22:46.314Z,8.71
2019-04-11T22:25:15.206Z,8.74
2019-04-11T22:27:44.201Z,8.92
2019-04-11T22:30:16.264Z,8.86
2019-04-11T22:32:46.693Z,8.83
2019-04-11T22:35:15.939Z,9.03
2019-04-11T22:37:44.784Z,9.00
2019-04-11T22:40:14.732Z,8.89
2019-04-11T22:42:43.589Z,8.90
2019-04-11T22:45:13.812Z,8.94
2019-04-11T22:47:42.805Z,9.06
2019-04-11T22:50:13.250Z,8.95
2019-04-11T22:52:42.805Z,8.80
2019-04-11T22:55:11.957Z,8.91
2019-04-11T22:57:43.585Z,8.77
2019-04-11T23:00:15.218Z,8.66
2019-04-11T23:02:47.430Z,8.63
2019-04-11T23:05:17.336Z,8.32
2019-04-11T23:07:48.346Z,8.70
2019-04-11T23:10:17.755Z,8.78
2019-04-11T23:12:46.670Z,8.64
2019-04-11T23:15:15.768Z,8.59
2019-04-11T23:17:44.965Z,8.72
2019-04-11T23:20:14.956Z,8.70
2019-04-11T23:22:44.074Z,8.54
2019-04-11T23:25:13.580Z,8.58
2019-04-11T23:27:42.476Z,8.64
2019-04-11T23:30:15.896Z,8.44
2019-04-11T23:32:44.864Z,8.36
2019-04-11T23:35:13.758Z,8.54
2019-04-11T23:37:54.525Z,8.40
2019-04-11T23:40:23.418Z,8.31
2019-04-11T23:42:52.619Z,8.34
2019-04-11T23:45:23.044Z,8.20
2019-04-11T23:47:54.098Z,8.33
2019-04-11T23:50:24.902Z,8.40
2019-04-11T23:52:57.045Z,8.12
2019-04-11T23:55:23.730Z,8.15
2019-04-11T23:57:52.627Z,8.21
